Latest Weather Observations for Kingaroy

IDQ60801

Issued at 11:02 pm EST Sunday 21 July 2019 (issued every 10 minutes, with the page automatically refreshed every 10 minutes)

About weather observations | Map of weather stations | Latest weather observations for QLD | Other Formats
Station Details ID: 040922 Name: KINGAROY AIRPORT Lat: -26.57 Lon: 151.84 Height: 433.67 m
Data from the previous 72 hours. | See also: Recent months at Kingaroy
Date/Time
EST
Temp
°C
App
Temp
°C
Dew
Point
°C
Rel
Hum
%
Delta-T
°C
Wind Press
QNH
hPa
Press
MSL
hPa
Rain since
9am
mm
Dir  Spd
km/h
Gust
km/h
Spd
kts
Gust
kts
21/11:00pm 9.4 8.8 7.2 86 1.1 CALM 0 0 0 0 1021.0 1021.0 0.0
21/10:30pm 11.0 10.7 8.6 85 1.2 CALM 0 6 0 3 1021.0 1021.0 0.0
21/10:00pm 11.4 9.8 8.6 83 1.4 SE 7 11 4 6 1020.8 1020.7 0.0
21/09:30pm 12.9 11.2 9.7 81 1.7 NE 9 13 5 7 1020.5 1020.4 0.0
21/09:00pm 13.5 11.7 9.6 77 2.0 ENE 9 19 5 10 1020.3 1020.2 0.0
21/08:30pm 14.1 12.3 9.3 73 2.5 NNE 9 17 5 9 1020.4 1020.3 0.0
21/08:00pm 14.5 12.6 9.1 70 2.8 NE 9 15 5 8 1020.2 1020.1 0.0
21/07:30pm 14.4 12.2 7.9 65 3.3 ENE 9 15 5 8 1019.8 1019.7 0.0
21/07:00pm 11.7 10.4 4.2 60 3.4 CALM 0 0 0 0 1019.4 1019.3 0.0
21/06:30pm 13.3 10.6 3.9 53 4.4 E 7 11 4 6 1019.0 1018.9 0.0
21/06:00pm 13.5 10.6 2.4 47 5.0 E 7 11 4 6 1018.4 1018.3 0.0
21/05:30pm 15.5 13.8 2.0 40 6.1 CALM 0 0 0 0 1018.2 1018.1 0.0
21/05:00pm 18.8 16.1 2.6 34 7.6 N 6 9 3 5 1017.9 1017.8 0.0
21/04:30pm 20.0 17.0 1.9 30 8.5 N 7 15 4 8 1017.7 1017.6 0.0
21/04:00pm 21.0 18.1 2.8 30 8.7 NNW 7 13 4 7 1017.8 1017.7 0.0
21/03:30pm 20.9 17.6 2.2 29 8.9 NNW 9 15 5 8 1018.0 1017.9 0.0
21/03:00pm 20.9 18.2 3.6 32 8.4 NNE 7 15 4 8 1018.2 1018.1 0.0
21/02:30pm 20.3 17.1 3.1 32 8.3 SW 9 15 5 8 1018.3 1018.2 0.0
21/02:00pm 20.8 17.2 4.8 35 8.0 N 13 20 7 11 1018.6 1018.5 0.0
21/01:30pm 19.9 17.4 4.8 37 7.5 S 7 13 4 7 1019.1 1019.0 0.0
21/01:00pm 20.5 17.6 4.5 35 7.9 NNE 9 15 5 8 1019.6 1019.5 0.0
21/12:30pm 19.3 14.7 3.9 36 7.5 NNW 17 28 9 15 1020.0 1019.9 0.0
21/12:00pm 18.9 15.5 6.1 43 6.5 N 13 24 7 13 1020.7 1020.6 0.0
21/11:30am 18.1 14.7 6.0 45 6.1 N 13 20 7 11 1021.4 1021.3 0.0
21/11:00am 18.1 15.1 7.5 50 5.5 NE 13 20 7 11 1022.0 1021.9 0.0
21/10:30am 17.9 14.9 7.9 52 5.2 NE 13 22 7 12 1022.4 1022.3 0.0
21/10:00am 17.1 15.1 8.5 57 4.5 ENE 9 17 5 9 1022.9 1022.9 0.0
21/09:30am 15.7 15.6 9.6 67 3.2 CALM 0 0 0 0 1023.2 1023.2 0.0
21/09:29am 15.5 15.4 9.6 68 3.1 CALM 0 0 0 0 1023.2 1023.2 0.0
21/09:00am 10.5 10.6 10.3 99 0.1 CALM 0 6 0 3 1023.3 1023.3 0.0
21/08:42am 8.5 8.1 8.4 99 0.0 CALM 0 0 0 0 1023.2 1023.2 0.0
21/08:36am 7.7 7.1 7.6 99 0.0 CALM 0 0 0 0 1023.2 1023.2 0.0
21/08:30am 6.9 6.2 6.8 99 0.0 CALM 0 0 0 0 1023.2 1023.2 0.0
21/08:00am 4.3 3.0 4.2 99 0.0 CALM 0 0 0 0 1023.3 1023.3 0.0
21/07:30am 2.3 0.7 2.2 99 0.0 CALM 0 0 0 0 1023.3 1023.3 0.0
21/07:00am 1.0 -0.8 0.9 99 0.0 CALM 0 0 0 0 1023.1 1023.1 0.0
21/06:30am 1.6 -0.2 1.5 99 0.0 CALM 0 0 0 0 1022.8 1022.7 0.0
21/06:00am 0.7 -1.2 0.6 99 0.0 CALM 0 0 0 0 1022.8 1022.7 0.0
21/05:30am 1.5 -0.3 1.4 99 0.0 CALM 0 0 0 0 1022.7 1022.6 0.0
21/05:00am 2.0 0.3 1.7 98 0.1 CALM 0 0 0 0 1022.6 1022.5 0.0
21/04:59am 2.0 0.3 1.7 98 0.1 CALM 0 0 0 0 1022.6 1022.5 0.0
21/04:53am 1.8 0.0 1.5 98 0.1 CALM 0 0 0 0 1022.6 1022.5 0.0
21/04:30am 1.5 -0.3 1.1 97 0.2 CALM 0 0 0 0 1022.5 1022.4 0.0
21/04:00am 2.5 0.9 2.4 99 0.0 CALM 0 0 0 0 1022.6 1022.5 0.0
21/03:54am 2.3 0.6 2.0 98 0.1 CALM 0 0 0 0 1022.6 1022.5 0.0
21/03:30am 2.7 0.4 2.6 99 0.0 ESE 4 7 2 4 1022.7 1022.6 0.0
21/03:12am 3.1 1.6 2.8 98 0.1 CALM 0 0 0 0 1022.6 1022.5 0.0
21/03:00am 3.1 1.5 2.7 97 0.2 CALM 0 0 0 0 1022.7 1022.6 0.0
21/02:37am 3.4 1.9 2.8 96 0.2 CALM 0 0 0 0 1022.7 1022.6 0.0
21/02:30am 3.5 2.0 2.8 95 0.3 CALM 0 0 0 0 1022.6 1022.5 0.0
21/02:00am 3.3 1.6 2.0 91 0.5 CALM 0 0 0 0 1022.8 1022.7 0.0
21/01:30am 3.9 2.3 2.4 90 0.6 CALM 0 0 0 0 1023.2 1023.2 0.0
21/01:00am 5.3 3.0 4.6 95 0.3 SE 6 7 3 4 1023.2 1023.2 0.0
21/12:30am 5.5 2.9 4.3 92 0.5 S 7 9 4 5 1023.7 1023.6 0.0
21/12:00am 6.3 3.1 5.3 93 0.4 S 11 13 6 7 1023.5 1023.5 0.0
 
Date/Time
EST
Temp
°C
App
Temp
°C
Dew
Point
°C
Rel
Hum
%
Delta-T
°C
Wind Press
QNH
hPa
Press
MSL
hPa
Rain since
9am
mm
Dir  Spd
km/h
Gust
km/h
Spd
kts
Gust
kts
20/11:30pm 5.8 2.5 4.4 91 0.6 S 11 13 6 7 1023.4 1023.4 0.0
20/11:00pm 8.7 6.7 7.3 91 0.7 SSE 7 9 4 5 1023.5 1023.5 0.0
20/10:30pm 7.3 4.9 5.4 88 0.9 SSW 7 7 4 4 1023.5 1023.5 0.0
20/10:00pm 9.9 7.1 5.3 73 2.1 E 9 15 5 8 1023.7 1023.6 0.0
20/09:30pm 12.1 9.5 7.6 74 2.2 E 11 17 6 9 1023.4 1023.4 0.0
20/09:00pm 12.4 9.8 7.7 73 2.3 E 11 17 6 9 1023.4 1023.4 0.0
20/08:30pm 12.9 9.9 7.8 71 2.6 E 13 17 7 9 1023.2 1023.2 0.0
20/08:00pm 13.3 10.3 7.7 69 2.8 E 13 19 7 10 1023.1 1023.1 0.0
20/07:30pm 13.3 10.8 6.4 63 3.4 ENE 9 13 5 7 1022.9 1022.9 0.0
20/07:00pm 13.5 11.0 6.6 63 3.4 ENE 9 15 5 8 1022.6 1022.5 0.0
20/06:30pm 11.8 8.8 4.3 60 3.5 ENE 9 13 5 7 1022.4 1022.3 0.0
20/06:00pm 13.6 11.2 4.5 54 4.3 ENE 6 9 3 5 1022.0 1021.9 0.0
20/05:30pm 15.5 13.1 4.3 47 5.3 ENE 6 9 3 5 1021.9 1021.8 0.0
20/05:00pm 17.7 15.4 4.6 42 6.4 ENE 6 11 3 6 1021.8 1021.7 0.0
20/04:30pm 18.9 15.9 4.3 38 7.1 ENE 9 17 5 9 1021.7 1021.6 0.0
20/04:00pm 19.8 16.4 3.9 35 7.7 NE 11 17 6 9 1021.7 1021.6 0.0
20/03:30pm 20.1 17.1 4.2 35 7.8 NE 9 15 5 8 1021.7 1021.6 0.0
20/03:00pm 20.2 16.7 3.4 33 8.1 NNE 11 17 6 9 1021.7 1021.6 0.0
20/02:30pm 20.5 17.1 4.1 34 8.1 NE 11 17 6 9 1021.7 1021.6 0.0
20/02:00pm 20.7 16.8 3.4 32 8.4 ENE 13 20 7 11 1021.7 1021.6 0.0
20/01:30pm 19.8 15.8 3.1 33 8.0 ENE 13 17 7 9 1021.9 1021.8 0.0
20/01:00pm 20.0 16.8 4.9 37 7.5 E 11 17 6 9 1022.5 1022.4 0.0
20/12:30pm 19.0 16.2 5.1 40 6.9 NE 9 20 5 11 1023.0 1023.0 0.0
20/12:00pm 18.5 15.5 6.0 44 6.3 ENE 11 22 6 12 1023.7 1023.6 0.0
20/11:30am 18.2 14.5 4.7 41 6.6 ENE 13 19 7 10 1024.2 1024.1 0.0
20/11:00am 17.8 14.2 5.1 43 6.2 E 13 22 7 12 1024.7 1024.6 0.0
20/10:30am 17.4 14.9 6.6 49 5.5 NE 9 17 5 9 1025.0 1025.0 0.0
20/10:00am 16.7 14.4 7.6 55 4.6 ENE 9 13 5 7 1025.2 1025.2 0.0
20/09:30am 15.5 14.0 8.3 62 3.7 E 6 9 3 5 1025.1 1025.1 0.0
20/09:00am 11.1 10.3 6.6 74 2.2 CALM 0 0 0 0 1025.1 1025.1 0.0
20/08:30am 6.8 5.8 5.4 91 0.6 CALM 0 0 0 0 1024.9 1024.9 0.0
20/08:00am 3.8 2.4 3.7 99 0.0 CALM 0 0 0 0 1024.6 1024.5 0.0
20/07:30am 1.0 -0.9 0.7 98 0.1 CALM 0 0 0 0 1024.3 1024.2 0.0
20/07:00am -0.3 -2.4 -1.1 94 0.3 CALM 0 0 0 0 1023.9 1023.8 0.0
20/06:30am -0.6 -2.8 -1.4 94 0.3 CALM 0 0 0 0 1023.5 1023.5 0.0
20/06:00am -0.2 -2.3 -0.9 95 0.2 CALM 0 0 0 0 1023.3 1023.3 0.0
20/05:30am -0.2 -2.3 -1.0 94 0.3 CALM 0 0 0 0 1022.9 1022.9 0.0
20/05:00am 0.1 -2.0 -0.7 94 0.3 CALM 0 0 0 0 1022.7 1022.6 0.0
20/04:30am 0.2 -1.9 -0.8 93 0.4 CALM 0 0 0 0 1022.5 1022.4 0.0
20/04:00am 0.6 -1.5 -0.5 92 0.4 CALM 0 0 0 0 1022.4 1022.3 0.0
20/03:30am 0.6 -1.5 -0.7 91 0.5 CALM 0 0 0 0 1022.5 1022.4 0.0
20/03:00am 1.1 -0.9 -0.2 91 0.5 CALM 0 0 0 0 1022.5 1022.4 0.0
20/02:30am 1.2 -0.9 -0.6 88 0.7 CALM 0 0 0 0 1022.5 1022.4 0.0
20/02:00am 1.4 -0.7 -0.8 85 0.8 CALM 0 0 0 0 1022.7 1022.6 0.0
20/01:30am 2.5 0.5 0.2 85 0.9 CALM 0 0 0 0 1022.7 1022.6 0.0
20/01:00am 2.4 0.2 -1.4 76 1.4 CALM 0 0 0 0 1022.9 1022.9 0.0
20/12:30am 2.5 0.5 -0.4 81 1.1 CALM 0 0 0 0 1022.9 1022.9 0.0
20/12:00am 3.0 -0.1 1.1 87 0.7 S 7 9 4 5 1022.8 1022.7 0.0
 
Date/Time
EST
Temp
°C
App
Temp
°C
Dew
Point
°C
Rel
Hum
%
Delta-T
°C
Wind Press
QNH
hPa
Press
MSL
hPa
Rain since
9am
mm
Dir  Spd
km/h
Gust
km/h
Spd
kts
Gust
kts
19/11:30pm 3.4 0.1 0.1 79 1.3 S 7 9 4 5 1022.7 1022.6 0.0
19/11:00pm 2.9 -0.8 -0.2 80 1.2 S 9 11 5 6 1022.6 1022.5 0.0
19/10:30pm 5.0 3.0 0.2 71 1.9 CALM 0 0 0 0 1022.6 1022.5 0.0
19/10:00pm 6.1 2.8 0.0 65 2.4 SSE 7 7 4 4 1022.5 1022.4 0.0
19/09:30pm 5.2 3.2 -0.4 67 2.2 CALM 0 0 0 0 1022.3 1022.2 0.0
19/09:00pm 6.1 4.1 -0.4 63 2.5 CALM 0 0 0 0 1022.2 1022.1 0.0
19/08:30pm 6.7 4.6 -0.7 59 2.9 CALM 0 0 0 0 1022.0 1021.9 0.0
19/08:00pm 8.9 6.1 -0.1 53 3.6 ESE 4 7 2 4 1021.8 1021.7 0.0
19/07:30pm 5.5 1.0 -0.5 65 2.3 SSW 13 17 7 9 1021.5 1021.4 0.0
19/07:00pm 8.2 4.2 0.2 57 3.2 E 11 13 6 7 1020.8 1020.7 0.0
19/06:30pm 9.3 7.3 -0.3 51 3.9 CALM 0 0 0 0 1020.6 1020.5 0.0
19/06:00pm 10.8 7.9 -0.9 44 4.8 E 4 7 2 4 1020.1 1020.0 0.0
19/05:30pm 14.3 11.0 -1.3 34 6.5 ENE 6 7 3 4 1019.9 1019.8 0.0
19/05:00pm 18.2 14.7 -1.1 27 8.4 ENE 7 7 4 4 1019.7 1019.6 0.0
19/04:30pm 19.2 16.7 -0.7 26 8.8 ENE 2 6 1 3 1019.6 1019.5 0.0
19/04:00pm 20.3 17.9 -0.3 25 9.3 NNE 2 6 1 3 1019.4 1019.3 0.0
19/03:30pm 19.7 16.2 -1.4 24 9.3 SE 7 13 4 7 1019.4 1019.3 0.0
19/03:00pm 19.5 15.7 -1.0 25 9.0 ESE 9 13 5 7 1019.2 1019.1 0.0
19/02:30pm 19.7 16.3 -0.9 25 9.1 NE 7 11 4 6 1019.2 1019.1 0.0
19/02:00pm 19.9 16.6 -0.1 26 9.0 NE 7 11 4 6 1019.1 1019.0 0.0
19/01:30pm 19.6 16.6 0.6 28 8.7 ENE 6 15 3 8 1019.4 1019.3 0.0
19/01:00pm 19.3 16.1 0.8 29 8.4 WNW 7 11 4 6 1019.6 1019.5 0.0
19/12:30pm 18.8 15.1 -0.1 28 8.4 NE 9 17 5 9 1020.0 1019.9 0.0
19/12:00pm 17.8 14.2 0.9 32 7.6 NE 9 13 5 7 1020.6 1020.5 0.0
19/11:30am 17.8 14.6 0.9 32 7.6 NE 7 13 4 7 1021.3 1021.2 0.0
19/11:00am 17.7 14.0 2.1 35 7.2 ENE 11 15 6 8 1021.6 1021.5 0.0
19/10:30am 16.2 13.0 3.3 42 6.0 ESE 9 15 5 8 1021.9 1021.8 0.0
19/10:00am 16.1 13.1 3.9 44 5.8 ESE 9 11 5 6 1021.9 1021.8 0.0
19/09:30am 15.0 11.4 3.2 45 5.5 SSE 11 17 6 9 1021.9 1021.8 0.0
19/09:00am 13.2 8.8 2.7 49 4.7 S 15 19 8 10 1021.7 1021.6 0.0
19/08:52am 12.3 9.3 4.3 58 3.7 SSW 9 11 5 6 1021.7 1021.6 0.0
19/08:30am 7.5 5.9 2.6 71 2.1 CALM 0 0 0 0 1021.6 1021.5 0.0
19/08:00am 4.0 2.4 2.7 91 0.5 CALM 0 0 0 0 1021.5 1021.4 0.0
19/07:30am 1.1 -0.9 -0.1 92 0.4 CALM 0 0 0 0 1021.4 1021.3 0.0
19/07:00am -0.3 -2.5 -1.9 89 0.5 CALM 0 0 0 0 1021.0 1021.0 0.0
19/06:30am 0.0 -2.1 -1.1 92 0.4 CALM 0 0 0 0 1020.5 1020.4 0.0
19/06:00am -0.4 -2.7 -2.4 86 0.7 CALM 0 0 0 0 1020.1 1020.0 0.0
19/05:30am -0.1 -2.3 -1.7 89 0.6 CALM 0 0 0 0 1019.9 1019.8 0.0
19/05:00am 0.3 -1.9 -1.4 88 0.6 CALM 0 0 0 0 1019.8 1019.7 0.0
19/04:30am -0.1 -2.4 -2.6 83 0.9 CALM 0 0 0 0 1019.7 1019.6 0.0
19/04:00am -0.1 -2.4 -2.5 84 0.8 CALM 0 0 0 0 1019.8 1019.7 0.0
19/03:30am -0.3 -2.7 -3.2 81 1.0 CALM 0 6 0 3 1019.8 1019.7 0.0
19/03:00am 0.0 -3.5 -2.7 82 0.9 W 6 9 3 5 1019.6 1019.5 0.0
19/02:30am 0.1 -3.0 -2.6 82 0.9 W 4 7 2 4 1019.5 1019.4 0.0
19/02:00am 1.0 -1.3 -2.4 78 1.3 CALM 0 0 0 0 1019.7 1019.6 0.0
19/01:30am 0.8 -1.9 -2.8 77 1.3 WSW 2 7 1 4 1019.9 1019.8 0.0
19/01:00am 1.2 -1.1 -2.5 76 1.4 CALM 0 0 0 0 1020.0 1019.9 0.0
19/12:30am 1.2 -1.1 -2.7 75 1.4 CALM 0 0 0 0 1020.2 1020.1 0.0
19/12:00am 1.6 -0.7 -2.5 74 1.4 CALM 0 0 0 0 1020.1 1020.0 0.0
 
Date/Time
EST
Temp
°C
App
Temp
°C
Dew
Point
°C
Rel
Hum
%
Delta-T
°C
Wind Press
QNH
hPa
Press
MSL
hPa
Rain since
9am
mm
Dir  Spd
km/h
Gust
km/h
Spd
kts
Gust
kts
18/11:30pm 1.3 -1.8 -3.0 73 1.6 NNW 4 9 2 5 1020.1 1020.0 0.0

Other formats

Comma delimited format used in spreadsheet applications
http://www.bom.gov.au/fwo/IDQ60801/IDQ60801.94549.axf

JavaScript Object Notation format (JSON) in row-major order
http://www.bom.gov.au/fwo/IDQ60801/IDQ60801.94549.json

Data quality

Most of these data are generated automatically and are frequently updated. Quality checks on data are not normally performed. It is possible for incorrect values to appear. Refer to information at About Latest Weather Observations and please check the disclaimer before using these data.